Time;durP1;ratioP1;P1;durP2;ratioP2;P2;SDS_P1;SDS_P2;PMS_P1;PMS_P2;Temp;Humidity;BMP_temperature;BMP_pressure;BME280_temperature;BME280_humidity;BME280_pressure;Samples;Min_cycle;Max_cycle;Signal;HPM_P1;HPM_P2
2024/02/01 00:01:14;;;;;;;24.17;5.20;;;;;;;-146.27;97.72;40711.00;5063810;28;20031;-71
2024/02/01 00:03:40;;;;;;;30.65;5.35;;;;;;;-146.27;98.32;40758.72;5065888;28;20028;-72
2024/02/01 00:06:06;;;;;;;19.52;5.55;;;;;;;-146.27;98.82;40754.75;5065990;28;20016;-71
2024/02/01 00:08:31;;;;;;;24.65;5.72;;;;;;;-146.27;99.67;40750.75;5065928;28;20029;-72
2024/02/01 00:10:56;;;;;;;23.92;5.70;;;;;;;-146.27;99.25;40768.66;5068077;28;20031;-72
2024/02/01 00:13:22;;;;;;;17.50;5.72;;;;;;;-146.27;99.63;40774.63;5062467;28;20024;-72
2024/02/01 00:15:47;;;;;;;23.77;5.47;;;;;;;-146.27;100.00;40673.25;5061821;28;20040;-72
2024/02/01 00:18:13;;;;;;;27.10;6.50;;;;;;;-146.27;99.52;40643.41;5066443;28;20056;-72
2024/02/01 00:20:38;;;;;;;27.77;5.45;;;;;;;-146.27;99.94;40671.25;5062137;28;20021;-73
2024/02/01 00:23:04;;;;;;;25.80;6.15;;;;;;;-146.27;99.84;40631.50;5061706;28;20436;-72
2024/02/01 00:25:29;;;;;;;25.90;5.35;;;;;;;-146.27;99.19;40671.25;5063297;28;20107;-72
2024/02/01 00:27:55;;;;;;;28.45;6.60;;;;;;;-146.27;100.00;40675.22;5060021;28;20112;-72
2024/02/01 00:30:21;;;;;;;25.70;5.43;;;;;;;-146.27;100.00;40617.56;5056329;28;20683;-72
2024/02/01 00:32:46;;;;;;;24.92;5.40;;;;;;;-146.27;100.00;40663.28;5054746;28;20031;-72
2024/02/01 00:35:12;;;;;;;32.58;5.57;;;;;;;-146.27;99.90;40603.66;5053499;28;20024;-71
2024/02/01 00:37:37;;;;;;;34.40;5.78;;;;;;;-146.27;100.00;40643.41;5049554;28;20013;-72
2024/02/01 00:40:03;;;;;;;40.72;7.18;;;;;;;-146.27;100.00;40605.66;5063703;28;20108;-72
2024/02/01 00:42:28;;;;;;;26.75;6.10;;;;;;;-146.27;100.00;40623.53;5051364;28;20029;-72
2024/02/01 00:44:54;;;;;;;28.05;5.65;;;;;;;-146.27;100.00;40611.63;5068535;28;20029;-73
2024/02/01 00:47:19;;;;;;;29.20;6.75;;;;;;;-146.27;100.00;40571.84;5070801;28;20679;-72
2024/02/01 00:49:45;;;;;;;22.90;5.43;;;;;;;-146.27;100.00;40585.78;5073434;28;20032;-72
2024/02/01 00:52:10;;;;;;;28.48;6.15;;;;;;;-146.27;100.00;40504.28;5063659;28;20033;-72
2024/02/01 00:54:37;;;;;;;29.20;5.97;;;;;;;-146.27;100.00;40548.00;5071975;28;20040;-72
2024/02/01 00:57:06;;;;;;;23.27;5.63;;;;;;;-146.27;100.00;40587.75;5070084;28;20035;-70
2024/02/01 00:59:31;;;;;;;26.27;6.00;;;;;;;-146.27;100.00;40559.94;5072077;28;20036;-72
2024/02/01 01:01:57;;;;;;;29.33;7.47;;;;;;;-146.27;100.00;40557.94;5064721;28;20035;-72
2024/02/01 01:04:22;;;;;;;32.17;6.63;;;;;;;-146.27;100.00;40551.97;5074414;28;20078;-72
2024/02/01 01:06:48;;;;;;;31.83;7.53;;;;;;;-146.27;100.00;40553.97;5060884;28;20025;-72
2024/02/01 01:09:13;;;;;;;32.83;5.72;;;;;;;-146.27;99.80;40512.22;5071875;28;20028;-72
2024/02/01 01:11:38;;;;;;;29.48;6.35;;;;;;;-146.27;99.43;40496.31;5068019;28;20115;-72
2024/02/01 01:14:04;;;;;;;29.30;6.20;;;;;;;-146.27;99.31;40504.28;5068092;28;20031;-72
2024/02/01 01:16:30;;;;;;;23.15;5.53;;;;;;;-146.27;99.41;40573.84;5058683;28;20393;-72
2024/02/01 01:18:56;;;;;;;32.35;7.13;;;;;;;-146.27;99.67;40548.00;5067270;28;20028;-72
2024/02/01 01:21:21;;;;;;;29.08;6.78;;;;;;;-146.27;99.08;40484.41;5063349;28;20021;-72
2024/02/01 01:23:46;;;;;;;33.42;7.25;;;;;;;-146.27;99.38;40508.25;5067669;28;20039;-72
2024/02/01 01:26:12;;;;;;;31.98;7.10;;;;;;;-146.27;98.87;40532.09;5063559;28;20420;-72
2024/02/01 01:28:37;;;;;;;37.53;7.18;;;;;;;-146.27;99.51;40575.84;5055715;28;20025;-70
2024/02/01 01:31:03;;;;;;;32.58;6.63;;;;;;;-146.27;99.18;40528.13;5060668;28;20045;-72
2024/02/01 01:33:28;;;;;;;32.15;6.55;;;;;;;-146.27;99.96;40571.84;5055555;28;20037;-72
2024/02/01 01:35:54;;;;;;;31.20;6.18;;;;;;;-146.27;99.41;40520.19;5066138;28;20440;-72
2024/02/01 01:38:19;;;;;;;28.25;5.88;;;;;;;-146.27;99.49;40551.97;5070462;28;20472;-73
2024/02/01 01:40:45;;;;;;;21.33;6.00;;;;;;;-146.27;98.74;40526.13;5067004;28;20126;-72
2024/02/01 01:43:11;;;;;;;25.17;6.57;;;;;;;-146.27;98.70;40559.94;5054757;28;20049;-72
2024/02/01 01:45:36;;;;;;;36.13;6.57;;;;;;;-146.27;98.63;40548.00;5065987;28;20036;-72
2024/02/01 01:48:02;;;;;;;32.80;5.65;;;;;;;-146.27;98.81;40617.56;5066516;28;20462;-72
2024/02/01 01:50:28;;;;;;;34.00;6.55;;;;;;;-146.27;98.68;40548.00;5071695;28;20459;-72
2024/02/01 01:52:55;;;;;;;34.63;6.68;;;;;;;-146.27;98.57;40579.81;5072175;28;20031;-72
2024/02/01 01:55:20;;;;;;;37.80;6.22;;;;;;;-146.27;98.52;40611.63;5068676;28;20020;-72
2024/02/01 01:57:48;;;;;;;35.75;7.80;;;;;;;-146.27;99.00;40687.16;5069441;28;20024;-72
2024/02/01 02:00:14;;;;;;;39.95;6.40;;;;;;;-146.27;99.16;40563.91;5067149;28;20021;-71
2024/02/01 02:02:40;;;;;;;33.03;5.82;;;;;;;-146.27;98.11;40555.97;5066100;28;20021;-72
2024/02/01 02:05:06;;;;;;;31.05;6.00;;;;;;;-146.27;98.04;40559.94;5065258;28;20329;-75
2024/02/01 02:07:31;;;;;;;37.00;6.57;;;;;;;-146.27;97.25;40573.84;5066937;28;20397;-72
2024/02/01 02:10:00;;;;;;;34.45;6.18;;;;;;;-146.27;97.94;40603.66;5070536;28;20023;-72
2024/02/01 02:12:27;;;;;;;40.65;7.45;;;;;;;-146.27;97.45;40603.66;5056197;28;20082;-72
2024/02/01 02:15:00;;;;;;;32.42;7.82;;;;;;;-146.27;96.79;40567.88;5071280;28;20464;-72
2024/02/01 02:17:26;;;;;;;44.28;5.97;;;;;;;-146.27;96.87;40619.56;5072236;28;20024;-73
2024/02/01 02:19:52;;;;;;;33.03;7.13;;;;;;;-146.27;96.77;40667.28;5069853;28;22788;-73
2024/02/01 02:22:17;;;;;;;29.20;5.65;;;;;;;-146.27;96.28;40627.50;5070962;28;20029;-72
2024/02/01 02:24:43;;;;;;;26.42;5.10;;;;;;;-146.27;96.28;40701.06;5070454;28;20029;-71
2024/02/01 02:27:08;;;;;;;25.80;4.53;;;;;;;-146.27;95.38;40679.19;5071094;28;20056;-72
2024/02/01 02:29:34;;;;;;;30.30;4.40;;;;;;;-146.27;94.97;40754.75;5071177;28;20052;-72
2024/02/01 02:31:59;;;;;;;26.98;4.80;;;;;;;-146.27;94.48;40792.50;5069138;28;20102;-72
2024/02/01 02:34:24;;;;;;;36.10;5.57;;;;;;;-146.27;93.50;40772.63;5071248;28;20024;-72
2024/02/01 02:36:50;;;;;;;37.22;3.55;;;;;;;-146.27;93.23;40850.16;5064619;28;20063;-72
2024/02/01 02:39:17;;;;;;;24.58;3.28;;;;;;;-146.27;92.92;40905.81;5068172;28;20090;-72
2024/02/01 02:41:43;;;;;;;18.40;3.72;;;;;;;-146.27;93.04;40977.38;5058721;28;20408;-72
2024/02/01 02:44:10;;;;;;;20.92;3.20;;;;;;;-146.27;92.60;40999.25;5063209;28;20025;-72
2024/02/01 02:46:36;;;;;;;26.90;2.97;;;;;;;-146.27;92.54;41060.88;5061376;28;20055;-72
2024/02/01 02:49:01;;;;;;;31.17;2.83;;;;;;;-146.27;92.80;41122.50;5070913;28;20029;-71
2024/02/01 02:51:27;;;;;;;24.98;2.97;;;;;;;-146.27;92.44;41104.63;5067270;28;20039;-72
2024/02/01 02:53:52;;;;;;;22.73;2.80;;;;;;;-146.27;92.28;41092.69;5070630;28;20037;-71
2024/02/01 02:56:17;;;;;;;22.98;4.57;;;;;;;-146.27;91.80;41168.25;5066425;28;20478;-71
2024/02/01 02:58:43;;;;;;;23.25;3.03;;;;;;;-146.27;91.58;41223.91;5060269;28;20022;-72
2024/02/01 03:01:08;;;;;;;32.95;3.42;;;;;;;-146.27;91.60;41259.69;5066434;28;20063;-71
2024/02/01 03:03:40;;;;;;;21.80;3.20;;;;;;;-146.27;91.74;41275.59;5058332;28;20036;-71
2024/02/01 03:06:07;;;;;;;20.73;2.03;;;;;;;-146.27;91.55;41283.56;5057292;28;20032;-72
2024/02/01 03:08:33;;;;;;;21.60;2.33;;;;;;;-146.27;91.66;41317.34;5065026;28;20079;-71
2024/02/01 03:10:58;;;;;;;20.40;2.67;;;;;;;-146.27;91.31;41349.16;5060986;28;20024;-70
2024/02/01 03:13:23;;;;;;;32.15;3.30;;;;;;;-146.27;90.99;41365.06;5071328;28;20070;-72
2024/02/01 03:15:49;;;;;;;20.70;2.65;;;;;;;-146.27;90.90;41412.78;5066586;28;20127;-73
2024/02/01 03:18:14;;;;;;;23.95;2.40;;;;;;;-146.27;90.85;41470.44;5071220;28;20025;-72
2024/02/01 03:20:43;;;;;;;18.42;2.47;;;;;;;-146.27;90.88;41474.41;5062850;28;20017;-72
2024/02/01 03:23:10;;;;;;;26.65;2.40;;;;;;;-146.27;90.38;41516.16;5066036;28;20430;-70
2024/02/01 03:25:38;;;;;;;35.97;3.05;;;;;;;-146.27;90.36;41565.88;5051904;28;20472;-72
2024/02/01 03:28:04;;;;;;;25.73;2.72;;;;;;;-146.27;89.90;41609.63;5062787;28;20028;-72
2024/02/01 03:30:38;;;;;;;19.33;2.42;;;;;;;-146.27;89.51;41607.63;5054774;28;20029;-72
2024/02/01 03:33:03;;;;;;;27.20;2.47;;;;;;;-146.27;88.83;41701.09;5053832;28;20027;-73
2024/02/01 03:35:31;;;;;;;19.63;2.30;;;;;;;-146.27;88.56;41744.81;5066324;28;20028;-72
2024/02/01 03:38:00;;;;;;;28.15;2.92;;;;;;;-146.27;88.51;41774.66;5062584;28;20028;-72
2024/02/01 03:40:25;;;;;;;19.70;2.80;;;;;;;-146.27;89.05;41718.97;5061768;28;20162;-72
2024/02/01 03:42:51;;;;;;;17.30;2.30;;;;;;;-146.27;88.22;41820.38;5069625;28;20123;-72
2024/02/01 03:45:16;;;;;;;23.00;2.95;;;;;;;-146.27;88.48;41806.47;5062797;28;20029;-72
2024/02/01 03:47:42;;;;;;;26.10;2.70;;;;;;;-146.27;88.50;41830.34;5065709;28;20056;-71
2024/02/01 03:50:10;;;;;;;20.67;2.55;;;;;;;-146.27;88.66;41868.09;5067175;28;20042;-71
2024/02/01 03:52:37;;;;;;;22.63;3.10;;;;;;;-146.27;88.18;41884.00;5055120;28;20043;-72
2024/02/01 03:55:04;;;;;;;33.95;3.28;;;;;;;-146.27;88.06;41921.78;5070213;28;20028;-72
2024/02/01 03:57:29;;;;;;;27.20;2.35;;;;;;;-146.27;87.25;41939.69;5066730;28;20492;-71
2024/02/01 03:59:55;;;;;;;17.27;2.78;;;;;;;-146.27;87.47;41971.50;5064836;28;20028;-72
2024/02/01 04:02:21;;;;;;;21.80;3.30;;;;;;;-146.27;87.35;42003.31;5068010;28;20020;-72
2024/02/01 04:04:47;;;;;;;11.77;1.42;;;;;;;-146.27;87.53;42009.28;5066798;28;20048;-71
2024/02/01 04:07:18;;;;;;;11.95;2.45;;;;;;;-146.27;87.78;42047.06;5058477;28;20392;-72
2024/02/01 04:09:47;;;;;;;35.72;3.15;;;;;;;-146.27;88.04;42031.16;5062998;28;20056;-71
2024/02/01 04:12:13;;;;;;;27.73;3.40;;;;;;;-146.27;88.54;42027.19;5060615;28;20054;-72
2024/02/01 04:14:38;;;;;;;19.17;2.60;;;;;;;-146.27;87.73;42062.97;5068137;28;20028;-72
2024/02/01 04:17:05;;;;;;;31.48;3.50;;;;;;;-146.27;87.24;42102.75;5064385;28;20028;-71
2024/02/01 04:19:30;;;;;;;20.73;2.55;;;;;;;-146.27;87.78;42090.81;5067621;28;20060;-72
2024/02/01 04:21:56;;;;;;;17.42;2.03;;;;;;;-146.27;87.81;42076.91;5052140;28;20067;-70
2024/02/01 04:24:21;;;;;;;29.10;3.65;;;;;;;-146.27;88.43;42070.94;5062060;28;20032;-72
2024/02/01 04:26:47;;;;;;;23.95;2.08;;;;;;;-146.27;88.23;42088.84;5064729;28;20024;-73
2024/02/01 04:29:13;;;;;;;16.27;2.25;;;;;;;-146.27;88.64;42106.72;5062574;28;20047;-71
2024/02/01 04:31:39;;;;;;;26.92;2.70;;;;;;;-146.27;88.62;42114.69;5064159;28;20052;-70
2024/02/01 04:34:04;;;;;;;23.50;2.80;;;;;;;-146.27;87.92;42120.66;5070389;28;20590;-71
2024/02/01 04:36:29;;;;;;;17.67;2.85;;;;;;;-146.27;87.17;42194.22;5059870;28;20024;-72
2024/02/01 04:38:55;;;;;;;23.48;2.85;;;;;;;-146.27;86.44;42218.09;5069767;28;20131;-71
2024/02/01 04:41:21;;;;;;;16.75;2.28;;;;;;;-146.27;86.64;42224.06;5061254;28;20025;-71
2024/02/01 04:43:47;;;;;;;26.80;2.83;;;;;;;-146.27;87.41;42168.38;5062995;28;20587;-72
2024/02/01 04:46:12;;;;;;;19.02;2.50;;;;;;;-146.27;88.09;42138.53;5051990;28;20017;-72
2024/02/01 04:48:38;;;;;;;21.45;2.00;;;;;;;-146.27;86.99;42210.13;5068235;28;20032;-71
2024/02/01 04:51:03;;;;;;;18.67;2.80;;;;;;;-146.27;86.72;42234.00;5065458;28;20017;-71
2024/02/01 04:53:29;;;;;;;18.20;2.70;;;;;;;-146.27;86.61;42261.84;5066268;28;20388;-71
2024/02/01 04:55:55;;;;;;;26.30;3.85;;;;;;;-146.27;86.54;42285.72;5067642;28;20040;-72
2024/02/01 04:58:20;;;;;;;18.65;2.85;;;;;;;-146.27;86.72;42247.91;5067905;28;20081;-71
2024/02/01 05:00:47;;;;;;;25.30;3.30;;;;;;;-146.27;86.77;42241.97;5059310;28;20489;-70
2024/02/01 05:03:15;;;;;;;22.38;3.20;;;;;;;-146.27;86.83;42226.03;5058486;28;20393;-71
2024/02/01 05:05:45;;;;;;;24.27;2.60;;;;;;;-146.27;87.05;42234.00;5062060;28;20024;-71
2024/02/01 05:08:16;;;;;;;27.02;3.88;;;;;;;-146.27;86.90;42237.97;5066635;28;20047;-71
2024/02/01 05:10:45;;;;;;;23.05;2.53;;;;;;;-146.27;86.96;42214.13;5054954;28;20042;-71
2024/02/01 05:13:13;;;;;;;10.68;2.17;;;;;;;-146.27;87.04;42212.13;5064431;28;20036;-71
2024/02/01 05:15:41;;;;;;;19.10;2.45;;;;;;;-146.27;87.27;42277.75;5057019;28;20029;-71
2024/02/01 05:18:08;;;;;;;23.02;3.08;;;;;;;-146.27;87.10;42289.69;5068432;28;20043;-71
2024/02/01 05:20:33;;;;;;;29.83;2.85;;;;;;;-146.27;87.27;42281.72;5066112;28;20044;-71
2024/02/01 05:22:59;;;;;;;23.55;2.13;;;;;;;-146.27;86.62;42281.72;5069303;28;20040;-70
2024/02/01 05:25:25;;;;;;;22.92;2.33;;;;;;;-146.27;87.15;42285.72;5056669;28;20032;-71
2024/02/01 05:27:50;;;;;;;18.38;3.45;;;;;;;-146.27;87.40;42309.56;5051034;28;20025;-72
2024/02/01 05:30:20;;;;;;;15.95;2.33;;;;;;;-146.27;86.69;42311.56;5049038;28;20431;-71
2024/02/01 05:32:52;;;;;;;23.15;2.05;;;;;;;-146.27;86.46;42299.63;5057521;28;20033;-71
2024/02/01 05:35:30;;;;;;;20.30;2.53;;;;;;;-146.27;86.32;42353.31;5066471;28;20082;-70
2024/02/01 05:37:59;;;;;;;14.25;2.65;;;;;;;-146.27;86.39;42325.47;5069693;28;20389;-70
2024/02/01 05:40:26;;;;;;;21.25;3.17;;;;;;;-146.27;86.10;42353.31;5067594;28;20112;-72
2024/02/01 05:42:52;;;;;;;16.77;2.63;;;;;;;-146.27;85.77;42355.31;5066128;28;20097;-71
2024/02/01 05:45:19;;;;;;;20.08;3.38;;;;;;;-146.27;85.61;42345.38;5055197;28;20037;-73
2024/02/01 05:47:44;;;;;;;21.30;2.33;;;;;;;-146.27;86.06;42385.13;5070985;28;20100;-70
2024/02/01 05:50:14;;;;;;;17.52;2.10;;;;;;;-146.27;85.59;42377.19;5067361;28;20116;-72
2024/02/01 05:52:40;;;;;;;21.40;3.33;;;;;;;-146.27;85.15;42440.81;5063636;28;20389;-71
2024/02/01 05:55:06;;;;;;;19.20;2.20;;;;;;;-146.27;84.94;42464.69;5068316;28;20028;-71
2024/02/01 05:57:33;;;;;;;20.05;2.47;;;;;;;-146.27;84.87;42464.69;5067453;28;20035;-71
2024/02/01 06:00:00;;;;;;;9.80;1.45;;;;;;;-146.27;84.88;42464.69;5071235;28;20103;-71
2024/02/01 06:02:27;;;;;;;25.73;2.72;;;;;;;-146.27;84.88;42488.56;5069242;28;20078;-73
2024/02/01 06:04:52;;;;;;;22.15;2.78;;;;;;;-146.27;84.48;42528.31;5070526;28;20115;-72
2024/02/01 06:07:18;;;;;;;31.48;2.55;;;;;;;-146.27;84.11;42510.44;5067375;28;20028;-72
2024/02/01 06:09:43;;;;;;;21.45;2.55;;;;;;;-146.27;84.15;42502.47;5071709;28;20021;-70
2024/02/01 06:12:09;;;;;;;17.35;3.08;;;;;;;-146.27;84.79;42524.34;5059045;28;20040;-71
2024/02/01 06:14:35;;;;;;;21.40;2.95;;;;;;;-146.27;84.89;42510.44;5054052;28;20028;-71
2024/02/01 06:17:01;;;;;;;25.30;3.08;;;;;;;-146.27;84.39;42556.16;5061174;28;20130;-71
2024/02/01 06:19:26;;;;;;;24.48;2.80;;;;;;;-146.27;84.34;42554.19;5063507;28;20028;-72
2024/02/01 06:21:51;;;;;;;14.77;2.88;;;;;;;-146.27;84.53;42536.28;5067128;28;20701;-72
2024/02/01 06:24:17;;;;;;;17.25;2.65;;;;;;;-146.27;84.86;42560.16;5067020;28;20032;-72
2024/02/01 06:26:42;;;;;;;24.42;2.78;;;;;;;-146.27;84.69;42562.13;5064178;28;20024;-71
2024/02/01 06:29:07;;;;;;;22.08;3.17;;;;;;;-146.27;85.10;42556.16;5067342;28;20028;-72
2024/02/01 06:31:39;;;;;;;23.15;2.83;;;;;;;-146.27;85.38;42542.25;5059468;28;20374;-72
2024/02/01 06:34:08;;;;;;;19.33;3.35;;;;;;;-146.27;85.12;42568.09;5066217;28;20169;-72
2024/02/01 06:36:37;;;;;;;38.65;4.35;;;;;;;-146.27;86.32;42564.13;5062671;28;20377;-71
2024/02/01 06:39:16;;;;;;;24.08;3.97;;;;;;;-146.27;86.02;42568.09;5070944;28;20024;-72
2024/02/01 06:42:04;;;;;;;16.55;2.58;;;;;;;-146.27;86.15;42552.19;5064216;28;20140;-71
2024/02/01 06:44:31;;;;;;;20.30;2.40;;;;;;;-146.27;86.26;42546.22;5062891;28;20025;-71
2024/02/01 06:57:47;;;;;;;24.35;2.72;;;;;;;-146.27;86.03;42552.19;5066924;28;20033;-70
2024/02/01 07:03:12;;;;;;;26.35;3.03;;;;;;;-146.27;86.22;42572.09;5070986;28;20086;-70
2024/02/01 07:08:26;;;;;;;29.73;2.70;;;;;;;-146.27;86.91;42546.22;5070834;28;20045;-70
2024/02/01 07:16:54;;;;;;;24.05;2.75;;;;;;;-146.27;86.83;42582.03;5062436;28;20477;-72
2024/02/01 07:19:39;;;;;;;18.70;2.35;;;;;;;-146.27;86.84;42599.94;5063218;28;20037;-72
2024/02/01 07:22:09;;;;;;;26.05;4.25;;;;;;;-146.27;86.87;42588.00;5061776;28;20028;-72
2024/02/01 08:00:17;;;;;;;17.60;3.08;;;;;;;-146.27;86.77;42765.00;5077762;28;20075;-72
2024/02/01 08:03:00;;;;;;;24.05;2.35;;;;;;;-146.27;86.78;42786.88;5070423;28;20111;-72
2024/02/01 08:08:14;;;;;;;33.90;4.20;;;;;;;-146.27;86.54;42874.38;5070596;28;20349;-70
2024/02/01 08:10:40;;;;;;;31.00;3.63;;;;;;;-146.27;86.66;42896.28;5069595;28;20021;-71
2024/02/01 08:13:05;;;;;;;29.25;3.78;;;;;;;-146.27;86.86;42910.19;5069648;28;20469;-70
2024/02/01 08:15:44;;;;;;;25.15;3.60;;;;;;;-146.27;87.05;42904.22;5068593;28;20109;-71
2024/02/01 08:18:10;;;;;;;19.80;3.38;;;;;;;-146.27;87.13;42882.34;5066971;28;20028;-71
2024/02/01 08:20:36;;;;;;;19.73;3.65;;;;;;;-146.27;86.76;42898.25;5069307;28;20059;-71
2024/02/01 08:23:02;;;;;;;23.85;2.80;;;;;;;-146.27;86.70;42890.31;5069220;28;20471;-71
2024/02/01 08:25:27;;;;;;;30.70;3.42;;;;;;;-146.27;86.85;42894.28;5070277;28;20074;-71
2024/02/01 08:27:53;;;;;;;28.25;3.35;;;;;;;-146.27;86.98;42934.06;5069403;28;20060;-71
2024/02/01 08:30:21;;;;;;;31.20;3.38;;;;;;;-146.27;86.93;42898.25;5068208;28;20027;-71
2024/02/01 08:32:48;;;;;;;21.73;3.97;;;;;;;-146.27;87.29;42942.00;5068688;28;20396;-70
2024/02/01 08:35:14;;;;;;;27.42;3.15;;;;;;;-146.27;86.83;42930.09;5069842;28;20017;-71
2024/02/01 08:37:40;;;;;;;28.73;3.80;;;;;;;-146.27;86.80;42930.09;5070187;28;20028;-70
2024/02/01 08:40:22;;;;;;;28.95;4.00;;;;;;;-146.27;86.30;42918.16;5070091;28;20032;-71
2024/02/01 08:42:57;;;;;;;25.73;3.38;;;;;;;-146.27;86.28;42902.22;5070086;28;20040;-73
2024/02/01 08:45:24;;;;;;;26.40;3.22;;;;;;;-146.27;85.63;42922.13;5070343;28;20025;-71
2024/02/01 08:47:49;;;;;;;27.80;3.58;;;;;;;-146.27;85.94;42922.13;5072017;28;20024;-71
2024/02/01 08:50:15;;;;;;;21.90;3.72;;;;;;;-146.27;85.72;42967.88;5083755;28;20050;-70
2024/02/01 08:52:47;;;;;;;23.45;4.65;;;;;;;-146.27;85.72;42924.13;5090046;28;20395;-70
2024/02/01 08:55:13;;;;;;;36.42;4.53;;;;;;;-146.27;85.18;42914.16;5090652;28;20031;-71
2024/02/01 08:57:40;;;;;;;26.35;4.00;;;;;;;-146.27;84.69;42902.22;5088166;28;20377;-72
2024/02/01 09:00:25;;;;;;;19.10;3.15;;;;;;;-146.27;84.50;42884.34;5069061;28;20059;-73
2024/02/01 09:03:11;;;;;;;24.88;3.30;;;;;;;-146.27;84.34;42884.34;5069713;28;20036;-71
2024/02/01 09:05:41;;;;;;;28.52;4.50;;;;;;;-146.27;84.48;42914.16;5068856;28;20337;-71
2024/02/01 09:08:07;;;;;;;27.23;4.00;;;;;;;-146.27;84.83;42961.91;5071190;28;20042;-72
2024/02/01 09:10:33;;;;;;;27.67;4.13;;;;;;;-146.27;84.35;42942.00;5072894;28;20111;-72
2024/02/01 09:12:59;;;;;;;17.38;5.20;;;;;;;-146.27;83.89;42928.09;5072067;28;20103;-71
2024/02/01 09:15:24;;;;;;;27.42;3.88;;;;;;;-146.27;83.69;42973.84;5072680;28;20704;-71
2024/02/01 09:17:51;;;;;;;42.10;4.97;;;;;;;-146.27;83.35;42991.75;5079060;28;20032;-71
2024/02/01 09:20:21;;;;;;;29.75;3.97;;;;;;;-146.27;83.20;42936.03;5084081;28;20039;-71
2024/02/01 09:22:51;;;;;;;21.42;4.10;;;;;;;-146.27;82.36;42890.31;5071758;28;20024;-69
2024/02/01 09:25:24;;;;;;;32.45;3.58;;;;;;;-146.27;82.11;42961.91;5073577;28;20031;-71
2024/02/01 09:27:52;;;;;;;32.92;3.22;;;;;;;-146.27;81.81;42967.88;5072682;28;20028;-71
2024/02/01 09:30:19;;;;;;;23.95;4.03;;;;;;;-146.27;81.14;42993.72;5071572;28;20025;-72
2024/02/01 09:32:49;;;;;;;35.70;5.32;;;;;;;-146.27;80.48;42987.75;5072304;28;20028;-72
2024/02/01 09:35:19;;;;;;;20.27;3.78;;;;;;;-146.27;79.76;43027.53;5070888;28;20039;-71
2024/02/01 09:37:45;;;;;;;23.48;3.42;;;;;;;-146.27;79.09;42997.72;5071580;28;20425;-73
2024/02/01 09:40:11;;;;;;;22.45;3.42;;;;;;;-146.27;78.59;43073.28;5072838;28;20035;-71
2024/02/01 09:42:41;;;;;;;37.40;4.63;;;;;;;-146.27;78.45;43172.75;5072309;28;20036;-70
2024/02/01 09:45:07;;;;;;;28.42;3.25;;;;;;;-146.27;78.16;43140.91;5068893;28;20035;-71
2024/02/01 09:47:41;;;;;;;26.92;4.05;;;;;;;-146.27;78.13;43132.97;5081154;28;20032;-70
2024/02/01 09:50:08;;;;;;;25.48;4.38;;;;;;;-146.27;77.67;43216.50;5072069;28;20020;-70
2024/02/01 09:52:39;;;;;;;33.70;4.50;;;;;;;-146.27;77.33;43250.31;5071886;28;20438;-69
2024/02/01 09:55:07;;;;;;;26.98;3.58;;;;;;;-146.27;76.50;43296.06;5070939;28;20085;-71
2024/02/01 09:57:40;;;;;;;29.40;3.40;;;;;;;-146.27;76.14;43292.09;5072282;28;20120;-70
2024/02/01 10:00:15;;;;;;;28.00;2.83;;;;;;;-146.27;75.69;43244.34;5071116;28;20455;-70
2024/02/01 10:02:44;;;;;;;28.08;3.67;;;;;;;-146.27;74.42;43292.09;5070989;28;20499;-70
2024/02/01 10:05:11;;;;;;;31.55;2.88;;;;;;;-146.27;74.27;43292.09;5071587;28;20031;-70
2024/02/01 10:07:37;;;;;;;22.35;3.33;;;;;;;-146.27;74.19;43375.63;5071624;28;20028;-70
2024/02/01 10:10:04;;;;;;;20.75;3.67;;;;;;;-146.27;73.78;43395.53;5071512;28;20024;-70
2024/02/01 10:12:31;;;;;;;26.00;3.00;;;;;;;-146.27;73.49;43512.91;5070464;28;20036;-69
2024/02/01 10:14:57;;;;;;;25.15;3.83;;;;;;;-146.27;72.98;43479.06;5071397;28;20149;-69
2024/02/01 10:17:24;;;;;;;21.45;3.67;;;;;;;-146.27;72.00;43487.03;5070561;28;20384;-70
2024/02/01 10:19:50;;;;;;;24.67;2.90;;;;;;;-146.27;72.16;43483.06;5071875;28;20029;-69
2024/02/01 10:22:15;;;;;;;27.27;3.50;;;;;;;-146.27;72.16;43518.88;5070961;28;20036;-70
2024/02/01 10:24:45;;;;;;;25.02;3.88;;;;;;;-146.27;71.91;43522.84;5071475;28;20483;-70
2024/02/01 10:27:11;;;;;;;24.42;2.72;;;;;;;-146.27;70.68;43586.50;5069500;28;20028;-69
2024/02/01 10:29:40;;;;;;;27.35;3.65;;;;;;;-146.27;69.96;43745.66;5070616;28;20031;-70
2024/02/01 10:32:13;;;;;;;30.35;4.07;;;;;;;-146.27;69.26;43650.16;5069859;28;20516;-71
2024/02/01 10:34:50;;;;;;;20.83;3.03;;;;;;;-146.27;69.31;43683.97;5072068;28;20020;-70
2024/02/01 10:37:17;;;;;;;22.33;3.13;;;;;;;-146.27;68.55;43630.25;5072286;28;20467;-70
2024/02/01 10:39:54;;;;;;;26.02;3.85;;;;;;;-146.27;67.26;43600.44;5071940;28;20031;-70
2024/02/01 10:42:22;;;;;;;17.92;3.00;;;;;;;-146.27;66.28;43624.28;5071610;28;20392;-71
2024/02/01 10:44:49;;;;;;;26.65;3.72;;;;;;;-146.27;65.18;43670.06;5080343;28;20523;-69
2024/02/01 10:47:17;;;;;;;26.23;3.83;;;;;;;-146.27;63.98;43857.06;5082557;28;20518;-71
2024/02/01 10:49:52;;;;;;;20.27;3.38;;;;;;;-146.27;63.36;43847.09;5071978;28;20055;-71
2024/02/01 10:52:22;;;;;;;21.83;2.85;;;;;;;-146.27;63.29;43886.91;5071905;28;20032;-72
2024/02/01 10:54:51;;;;;;;33.30;4.63;;;;;;;-146.27;63.54;43934.66;5071134;28;20029;-72
2024/02/01 10:57:17;;;;;;;21.50;3.22;;;;;;;-146.27;62.82;43853.06;5071908;28;20063;-70
2024/02/01 10:59:45;;;;;;;20.80;3.28;;;;;;;-146.27;64.28;43833.19;5070903;28;20028;-71
2024/02/01 11:02:11;;;;;;;16.38;3.28;;;;;;;-146.27;62.59;43685.97;5069884;28;20099;-70
2024/02/01 11:04:38;;;;;;;17.88;2.63;;;;;;;-146.27;60.95;43821.25;5070558;28;20024;-68
2024/02/01 11:07:04;;;;;;;19.20;2.88;;;;;;;-146.27;58.93;43906.78;5071515;28;20097;-69
2024/02/01 11:09:30;;;;;;;27.30;3.85;;;;;;;-146.27;59.81;43809.31;5071622;28;20089;-70
2024/02/01 11:11:56;;;;;;;26.58;3.92;;;;;;;-146.27;57.77;44036.09;5071607;28;20028;-68
2024/02/01 11:14:24;;;;;;;22.35;3.10;;;;;;;-146.27;57.69;44028.16;5070129;28;20020;-71
2024/02/01 11:16:56;;;;;;;19.58;3.28;;;;;;;-146.27;59.44;43823.22;5077329;28;20021;-72
2024/02/01 11:19:33;;;;;;;17.27;2.77;;;;;;;-146.27;55.28;43948.56;5069572;28;20115;-72
2024/02/01 11:22:03;;;;;;;24.02;3.60;;;;;;;-146.27;53.94;44151.50;5070043;28;20114;-70
2024/02/01 11:24:37;;;;;;;20.42;3.85;;;;;;;-146.27;54.31;44109.72;5071250;28;20112;-68
2024/02/01 11:27:19;;;;;;;21.85;3.67;;;;;;;-146.27;55.58;44191.28;5069914;28;20047;-68
2024/02/01 11:29:51;;;;;;;18.90;3.58;;;;;;;-146.27;54.58;44288.78;5070760;28;20026;-70
2024/02/01 11:32:18;;;;;;;25.73;3.95;;;;;;;-146.27;54.25;44219.16;5070969;28;20056;-71
2024/02/01 11:34:59;;;;;;;23.77;2.95;;;;;;;-146.27;55.25;44195.28;5070717;28;20034;-69
2024/02/01 11:37:24;;;;;;;17.55;3.30;;;;;;;-146.27;54.09;44135.59;5069109;28;20028;-70
2024/02/01 11:39:51;;;;;;;25.80;3.83;;;;;;;-146.27;54.73;44119.66;5070489;28;20039;-69
2024/02/01 11:42:21;;;;;;;20.15;2.95;;;;;;;-146.27;53.99;44203.22;5069490;28;20195;-71
2024/02/01 11:44:46;;;;;;;20.30;2.85;;;;;;;-146.27;54.89;44004.28;5051295;28;20040;-69
2024/02/01 11:47:12;;;;;;;20.25;3.65;;;;;;;-146.27;53.73;44030.13;5059510;28;20032;-69
2024/02/01 11:49:38;;;;;;;15.75;3.28;;;;;;;-146.27;51.01;44215.16;5070549;28;20025;-70
2024/02/01 11:52:15;;;;;;;16.77;3.25;;;;;;;-146.27;49.98;44274.84;5070007;28;20503;-71
2024/02/01 11:54:50;;;;;;;19.77;3.53;;;;;;;-146.27;51.95;44056.00;5069675;28;20035;-70
2024/02/01 11:57:21;;;;;;;17.02;2.83;;;;;;;-146.27;52.25;44000.28;5068344;28;20039;-70
2024/02/01 11:59:47;;;;;;;18.63;3.40;;;;;;;-146.27;49.83;44016.22;5069441;28;20553;-69
2024/02/01 12:02:13;;;;;;;19.52;2.58;;;;;;;-146.27;49.21;44137.56;5070175;28;20067;-70
2024/02/01 12:04:41;;;;;;;19.40;3.92;;;;;;;-146.27;48.45;44231.09;5069629;28;20108;-70
2024/02/01 12:07:08;;;;;;;17.92;3.75;;;;;;;-146.27;49.94;44167.41;5070395;28;20028;-70
2024/02/01 12:09:35;;;;;;;36.25;3.90;;;;;;;-146.27;49.43;44127.63;5070486;28;20439;-72
2024/02/01 12:12:03;;;;;;;24.02;3.83;;;;;;;-146.27;47.44;44185.31;5068027;28;20077;-69